Time;durP1;ratioP1;P1;durP2;ratioP2;P2;SDS_P1;SDS_P2;PMS_P1;PMS_P2;Temp;Humidity;BMP_temperature;BMP_pressure;BME280_temperature;BME280_humidity;BME280_pressure;Samples;Min_cycle;Max_cycle;Signal;HPM_P1;HPM_P2
2021/11/25 00:09:47;;;;;;;;;;;;;;;;;;;;;
2021/11/25 00:13:53;;;;;;;;;;;;;;;20.70;33.23;101842.83;101196;1360;602801;-81
2021/11/25 00:16:58;;;;;;;;;;;;;;;20.68;33.18;101845.41;101267;1367;70970;-81
2021/11/25 00:20:19;;;;;;;;;;;;;;;;;;;;;
2021/11/25 00:23:34;;;;;;;;;;;;;;;20.68;33.12;101852.56;99860;1380;60569;-81
2021/11/25 00:30:07;;;;;;;;;;;;;;;20.69;33.13;101848.44;99270;1385;71263;-82
2021/11/25 00:40:16;;;;;;;;;;;;;;;;;;;;;
2021/11/25 00:43:41;;;;;;;;;;;;;;;;;;;;;
2021/11/25 00:46:58;;;;;;;;;;;;;;;;;;;;;
2021/11/25 00:53:46;;;;;;;;;;;;;;;;;;;;;
2021/11/25 00:57:41;;;;;;;;;;;;;;;20.69;33.05;101829.10;96553;1420;75325;-80
2021/11/25 01:01:08;;;;;;;;;;;;;;;20.69;33.04;101827.70;96798;1416;60828;-81
2021/11/25 01:04:16;;;;;;;;;;;;;;;20.69;33.04;101822.49;96891;1416;60330;-81
2021/11/25 01:10:39;;;;;;;;;;;;;;;;;;;;;
2021/11/25 01:17:34;;;;;;;;;;;;;;;;;;;;;
2021/11/25 01:21:01;;;;;;;;;;;;;;;20.69;32.94;101814.98;97069;1413;71691;-81
2021/11/25 01:24:05;;;;;;;;;;;;;;;;;;;;;
2021/11/25 01:27:22;;;;;;;;;;;;;;;;;;;;;
2021/11/25 01:30:34;;;;;;;;;;;;;;;20.69;32.86;101812.83;96759;1408;60511;-80
2021/11/25 01:33:32;;;;;;;;;;;;;;;;;;;;;
2021/11/25 01:36:59;;;;;;;;;;;;;;;20.69;32.94;101810.32;96818;1420;72194;-81
2021/11/25 01:40:06;;;;;;;;;;;;;;;20.69;32.96;101808.88;96656;1418;60436;-81
2021/11/25 01:43:32;;;;;;;;;;;;;;;;;;;;;
2021/11/25 01:50:37;;;;;;;;;;;;;;;20.70;32.69;101799.52;96896;1411;72259;-81
2021/11/25 01:53:32;;;;;;;;;;;;;;;;;;;;;
2021/11/25 01:56:47;;;;;;;;;;;;;;;20.70;32.78;101795.39;96899;1411;60532;-81
2021/11/25 02:03:18;;;;;;;;;;;;;;;;;;;;;
2021/11/25 02:06:52;;;;;;;;;;;;;;;20.71;32.97;101797.89;96951;1409;61245;-81
2021/11/25 02:09:43;;;;;;;;;;;;;;;;;;;;;
2021/11/25 02:13:34;;;;;;;;;;;;;;;20.71;32.85;101802.50;96972;1410;74718;-81
2021/11/25 02:17:01;;;;;;;;;;;;;;;20.72;32.71;101799.26;97025;1413;74904;-81
2021/11/25 02:20:27;;;;;;;;;;;;;;;20.72;32.68;101798.70;97112;1414;59868;-81
2021/11/25 02:30:51;;;;;;;;;;;;;;;20.72;32.62;101791.93;96608;1417;72544;-81
2021/11/25 02:33:46;;;;;;;;;;;;;;;20.72;32.82;101789.96;96438;1424;60454;-81
2021/11/25 02:36:44;;;;;;;;;;;;;;;;;;;;;
2021/11/25 02:43:27;;;;;;;;;;;;;;;;;;;;;
2021/11/25 02:46:45;;;;;;;;;;;;;;;;;;;;;
2021/11/25 02:53:47;;;;;;;;;;;;;;;;;;;;;
2021/11/25 02:56:53;;;;;;;;;;;;;;;20.71;32.66;101774.06;100817;1364;73090;-81
2021/11/25 02:59:54;;;;;;;;;;;;;;;;;;;;;
2021/11/25 03:03:00;;;;;;;;;;;;;;;20.72;32.65;101775.83;100393;1370;59528;-80
2021/11/25 03:06:15;;;;;;;;;;;;;;;20.72;32.54;101773.48;95533;1385;5376497;-80
2021/11/25 03:12:40;;;;;;;;;;;;;;;;;;;;;
2021/11/25 03:19:26;;;;;;;;;;;;;;;;;;;;;
2021/11/25 03:22:42;;;;;;;;;;;;;;;20.71;32.56;101761.18;96893;1412;71318;-80
2021/11/25 03:25:41;;;;;;;;;;;;;;;;;;;;;
2021/11/25 03:28:43;;;;;;;;;;;;;;;;;;;;;
2021/11/25 03:31:43;;;;;;;;;;;;;;;;;;;;;
2021/11/25 03:35:12;;;;;;;;;;;;;;;20.72;32.48;101753.29;96298;1420;73393;-80
2021/11/25 03:38:01;;;;;;;;;;;;;;;20.73;32.47;101752.54;96222;1427;59749;-81
2021/11/25 03:41:22;;;;;;;;;;;;;;;20.73;32.50;101749.48;96326;1419;59770;-80
2021/11/25 03:44:56;;;;;;;;;;;;;;;;;;;;;
2021/11/25 03:48:03;;;;;;;;;;;;;;;;;;;;;
2021/11/25 03:51:19;;;;;;;;;;;;;;;;;;;;;
2021/11/25 03:58:14;;;;;;;;;;;;;;;20.73;32.36;101744.63;96888;1411;71582;-80
2021/11/25 04:01:03;;;;;;;;;;;;;;;;;;;;;
2021/11/25 04:04:22;;;;;;;;;;;;;;;;;;;;;
2021/11/25 04:07:38;;;;;;;;;;;;;;;20.73;32.39;101743.04;98294;1396;61935;-81
2021/11/25 04:10:55;;;;;;;;;;;;;;;;;;;;;
2021/11/25 04:14:13;;;;;;;;;;;;;;;;;;;;;
2021/11/25 04:17:23;;;;;;;;;;;;;;;;;;;;;
2021/11/25 04:20:39;;;;;;;;;;;;;;;;;;;;;
2021/11/25 04:24:27;;;;;;;;;;;;;;;20.73;32.29;101740.88;98058;1398;73007;-79
2021/11/25 04:27:24;;;;;;;;;;;;;;;20.74;32.13;101740.84;97930;1401;72102;-80
2021/11/25 04:44:21;;;;;;;;;;;;;;;20.74;32.10;101739.95;98305;1402;59715;-81
2021/11/25 04:47:12;;;;;;;;;;;;;;;;;;;;;
2021/11/25 04:50:14;;;;;;;;;;;;;;;;;;;;;
2021/11/25 05:03:50;;;;;;;;;;;;;;;20.71;31.91;101718.64;97800;1403;73689;-81
2021/11/25 05:07:21;;;;;;;;;;;;;;;20.70;31.98;101717.11;97558;1403;73662;-81
2021/11/25 05:10:23;;;;;;;;;;;;;;;20.69;31.83;101714.09;97333;1408;60273;-81
2021/11/25 05:13:43;;;;;;;;;;;;;;;;;;;;;
2021/11/25 05:16:48;;;;;;;;;;;;;;;;;;;;;
2021/11/25 05:20:15;;;;;;;;;;;;;;;20.67;31.69;101720.80;97486;1409;72185;-81
2021/11/25 05:23:00;;;;;;;;;;;;;;;;;;;;;
2021/11/25 05:26:09;;;;;;;;;;;;;;;20.58;31.69;101718.42;97363;1409;60799;-81
2021/11/25 05:29:29;;;;;;;;;;;;;;;;;;;;;
2021/11/25 05:32:30;;;;;;;;;;;;;;;;;;;;;
2021/11/25 05:35:55;;;;;;;;;;;;;;;;;;;;;
2021/11/25 05:38:56;;;;;;;;;;;;;;;;;;;;;
2021/11/25 05:42:28;;;;;;;;;;;;;;;20.51;31.50;101725.39;96752;1416;74356;-79
2021/11/25 05:44:59;;;;;;;;;;;;;;;20.46;31.38;101724.80;96813;1410;73416;-80
2021/11/25 05:47:49;;;;;;;;;;;;;;;20.40;31.40;101725.26;96876;1412;61622;-79
2021/11/25 05:50:18;;;;;;;;;;;;;;;20.35;31.50;101725.19;97111;1401;61590;-79
2021/11/25 05:52:45;;;;;;;;;;;;;;;20.32;31.53;101728.41;97369;1399;73829;-79
2021/11/25 05:55:29;;;;;;;;;;;;;;;;;;;;;
2021/11/25 05:58:14;;;;;;;;;;;;;;;;;;;;;
2021/11/25 06:00:52;;;;;;;;;;;;;;;20.20;31.47;101733.11;97666;1396;60759;-79
2021/11/25 06:03:29;;;;;;;;;;;;;;;20.17;31.45;101734.90;97714;1397;72819;-79
2021/11/25 06:06:18;;;;;;;;;;;;;;;20.14;31.38;101736.31;98622;1386;74049;-79
2021/11/25 06:08:47;;;;;;;;;;;;;;;20.10;31.40;101741.00;98893;1382;59410;-79
2021/11/25 06:11:47;;;;;;;;;;;;;;;20.08;31.47;101739.31;98816;1382;61657;-79
2021/11/25 06:14:25;;;;;;;;;;;;;;;;;;;;;
2021/11/25 06:17:03;;;;;;;;;;;;;;;;;;;;;
2021/11/25 06:19:54;;;;;;;;;;;;;;;20.09;31.73;101738.69;99799;1371;59744;-79
2021/11/25 06:22:22;;;;;;;;;;;;;;;20.11;31.71;101732.02;99924;1368;60464;-79
2021/11/25 06:24:48;;;;;;;;;;;;;;;20.15;31.57;101731.12;99928;1368;59842;-79
2021/11/25 06:27:38;;;;;;;;;;;;;;;20.19;31.49;101728.73;99866;1374;74706;-79
2021/11/25 06:30:21;;;;;;;;;;;;;;;;;;;;;
2021/11/25 06:32:58;;;;;;;;;;;;;;;20.29;31.38;101722.98;100180;1374;61178;-79
2021/11/25 06:35:23;;;;;;;;;;;;;;;20.34;31.42;101724.53;100419;1374;73651;-79
2021/11/25 06:37:53;;;;;;;;;;;;;;;20.39;31.39;101726.42;99840;1374;74234;-78
2021/11/25 06:40:28;;;;;;;;;;;;;;;20.43;31.42;101721.91;100635;1375;61115;-79
2021/11/25 06:43:11;;;;;;;;;;;;;;;20.46;31.42;101722.64;99896;1367;59472;-79
2021/11/25 06:45:49;;;;;;;;;;;;;;;;;;;;;
2021/11/25 06:48:59;;;;;;;;;;;;;;;;;;;;;
2021/11/25 06:51:27;;;;;;;;;;;;;;;20.56;31.49;101712.23;99905;1374;61459;-78
2021/11/25 06:53:53;;;;;;;;;;;;;;;20.59;31.39;101713.52;99456;1378;60912;-78
2021/11/25 06:56:26;;;;;;;;;;;;;;;20.59;31.40;101709.92;99434;1373;59761;-79
2021/11/25 06:59:14;;;;;;;;;;;;;;;20.49;31.43;101708.33;100456;1373;72826;-79
2021/11/25 07:01:41;;;;;;;;;;;;;;;20.41;31.60;101707.70;99720;1374;61414;-80
2021/11/25 07:04:13;;;;;;;;;;;;;;;20.31;31.65;101711.84;99691;1379;59450;-80
2021/11/25 07:07:16;;;;;;;;;;;;;;;20.21;31.69;101712.73;99625;1377;72950;-80
2021/11/25 07:09:41;;;;;;;;;;;;;;;20.16;31.69;101713.16;100531;1380;73262;-79
2021/11/25 07:12:11;;;;;;;;;;;;;;;20.15;31.59;101711.27;99827;1376;59470;-79
2021/11/25 07:14:45;;;;;;;;;;;;;;;20.15;31.57;101706.61;99491;1377;61651;-79
2021/11/25 07:17:32;;;;;;;;;;;;;;;;;;;;;
2021/11/25 07:20:01;;;;;;;;;;;;;;;20.20;31.35;101694.36;99560;1377;74728;-79
2021/11/25 07:22:29;;;;;;;;;;;;;;;20.23;31.36;101693.11;99524;1379;60285;-80
2021/11/25 07:25:25;;;;;;;;;;;;;;;20.26;31.27;101690.12;99641;1371;61892;-79
2021/11/25 07:27:50;;;;;;;;;;;;;;;20.30;31.21;101685.09;99163;1378;72853;-79
2021/11/25 07:30:20;;;;;;;;;;;;;;;20.34;31.15;101687.56;99434;1374;59729;-78
2021/11/25 07:33:15;;;;;;;;;;;;;;;20.38;31.14;101689.13;99484;1373;59911;-79
2021/11/25 07:36:24;;;;;;;;;;;;;;;;;;;;;
2021/11/25 07:39:06;;;;;;;;;;;;;;;20.35;31.24;101690.73;99538;1373;73048;-79
2021/11/25 07:41:46;;;;;;;;;;;;;;;20.29;31.24;101689.39;99510;1376;75314;-80
2021/11/25 07:44:28;;;;;;;;;;;;;;;20.23;31.29;101683.45;99621;1378;60393;-80
2021/11/25 07:47:06;;;;;;;;;;;;;;;20.18;31.30;101686.06;99380;1373;61688;-79
2021/11/25 07:49:39;;;;;;;;;;;;;;;20.15;31.37;101683.75;99691;1374;74173;-79
2021/11/25 07:52:08;;;;;;;;;;;;;;;20.10;31.27;101681.99;99290;1377;75202;-79
2021/11/25 07:54:34;;;;;;;;;;;;;;;19.96;31.11;101679.35;99366;1373;61370;-79
2021/11/25 07:57:08;;;;;;;;;;;;;;;19.58;30.93;101679.31;99448;1376;60686;-78
2021/11/25 07:59:54;;;;;;;;;;;;;;;19.28;30.91;101669.20;99334;1378;71820;-79
2021/11/25 08:02:31;;;;;;;;;;;;;;;19.17;30.99;101668.00;99377;1377;74113;-79
2021/11/25 08:04:59;;;;;;;;;;;;;;;19.20;31.37;101668.90;99453;1370;60498;-79
2021/11/25 08:07:39;;;;;;;;;;;;;;;;;;;;;
2021/11/25 08:10:23;;;;;;;;;;;;;;;19.37;31.74;101666.27;100130;1371;72788;-79
2021/11/25 08:13:25;;;;;;;;;;;;;;;19.42;31.72;101661.02;99935;1367;74091;-79
2021/11/25 08:16:19;;;;;;;;;;;;;;;19.47;31.67;101658.65;100019;1367;60495;-79
2021/11/25 08:19:04;;;;;;;;;;;;;;;19.51;31.66;101657.52;99944;1368;60486;-79
2021/11/25 08:21:57;;;;;;;;;;;;;;;19.53;31.56;101655.28;99985;1372;73021;-79
2021/11/25 08:24:28;;;;;;;;;;;;;;;19.56;31.58;101654.40;100716;1359;73828;-79
2021/11/25 08:27:43;;;;;;;;;;;;;;;;;;;;;
2021/11/25 08:30:52;;;;;;;;;;;;;;;19.61;31.29;101641.51;101289;1359;60541;-78
2021/11/25 08:33:15;;;;;;;;;;;;;;;19.62;31.33;101639.15;101499;1359;72808;-78
2021/11/25 08:36:20;;;;;;;;;;;;;;;;;;;;;
2021/11/25 08:39:00;;;;;;;;;;;;;;;19.65;31.49;101632.16;100986;1356;61313;-78
2021/11/25 08:41:57;;;;;;;;;;;;;;;19.67;31.42;101628.68;100845;1361;62155;-78
2021/11/25 08:44:37;;;;;;;;;;;;;;;19.68;31.40;101625.58;100993;1362;74038;-78
2021/11/25 08:47:26;;;;;;;;;;;;;;;19.69;31.37;101621.95;101064;1361;73623;-78
2021/11/25 08:49:54;;;;;;;;;;;;;;;19.70;31.42;101618.52;100563;1360;60410;-79
2021/11/25 08:52:46;;;;;;;;;;;;;;;19.71;31.44;101614.91;100476;1362;60730;-79
2021/11/25 08:55:34;;;;;;;;;;;;;;;19.66;31.12;101615.02;100402;1359;73871;-79
2021/11/25 08:58:32;;;;;;;;;;;;;;;19.58;31.24;101613.61;100421;1362;74287;-80
2021/11/25 09:01:03;;;;;;;;;;;;;;;19.58;31.37;101614.67;99653;1368;60745;-80
2021/11/25 09:03:48;;;;;;;;;;;;;;;19.53;31.41;101612.07;99321;1377;60534;-79
2021/11/25 09:06:19;;;;;;;;;;;;;;;19.52;31.35;101605.52;98954;1381;72665;-78
2021/11/25 09:08:47;;;;;;;;;;;;;;;19.46;31.43;101603.16;98749;1377;74008;-79
2021/11/25 09:12:12;;;;;;;;;;;;;;;19.43;31.49;101598.86;98997;1373;60557;-79
2021/11/25 09:14:53;;;;;;;;;;;;;;;19.46;31.64;101590.85;99224;1377;60454;-79
2021/11/25 09:17:21;;;;;;;;;;;;;;;19.54;31.67;101590.23;100227;1373;73041;-79
2021/11/25 09:19:47;;;;;;;;;;;;;;;19.64;31.67;101587.04;100093;1376;59800;-79
2021/11/25 09:22:14;;;;;;;;;;;;;;;19.73;31.68;101581.04;100298;1375;59085;-79
2021/11/25 09:24:40;;;;;;;;;;;;;;;19.81;31.66;101576.16;100226;1377;58840;-79
2021/11/25 09:27:06;;;;;;;;;;;;;;;19.84;31.60;101573.68;100479;1374;58759;-80
2021/11/25 09:29:32;;;;;;;;;;;;;;;19.84;31.54;101568.50;100801;1368;58908;-80
2021/11/25 09:31:58;;;;;;;;;;;;;;;19.83;31.49;101568.59;100749;1367;59153;-80
2021/11/25 09:34:24;;;;;;;;;;;;;;;19.82;31.42;101567.60;100922;1371;58981;-79
2021/11/25 09:36:50;;;;;;;;;;;;;;;19.79;31.41;101565.70;100829;1370;58700;-79
2021/11/25 09:39:15;;;;;;;;;;;;;;;19.78;31.31;101561.65;101327;1362;73720;-79
2021/11/25 09:41:41;;;;;;;;;;;;;;;19.78;31.26;101560.26;101223;1353;59433;-79
2021/11/25 09:44:07;;;;;;;;;;;;;;;19.77;31.04;101556.69;101105;1353;60401;-80
2021/11/25 09:46:49;;;;;;;;;;;;;;;;;;;;;
2021/11/25 09:49:26;;;;;;;;;;;;;;;19.78;31.03;101552.72;101035;1354;72764;-79
2021/11/25 09:52:18;;;;;;;;;;;;;;;19.79;31.02;101547.48;101089;1353;73839;-79
2021/11/25 09:55:02;;;;;;;;;;;;;;;19.81;31.04;101542.44;100931;1353;60477;-79
2021/11/25 09:57:39;;;;;;;;;;;;;;;19.79;31.31;101538.74;100842;1353;60644;-79
2021/11/25 10:00:28;;;;;;;;;;;;;;;19.80;31.55;101538.73;101147;1353;75782;-79
2021/11/25 10:02:57;;;;;;;;;;;;;;;19.82;31.75;101532.34;101034;1357;73871;-79
2021/11/25 10:05:32;;;;;;;;;;;;;;;19.84;31.75;101523.33;101273;1353;61546;-80
2021/11/25 10:08:17;;;;;;;;;;;;;;;19.85;31.76;101528.65;101234;1352;60539;-79
2021/11/25 10:10:45;;;;;;;;;;;;;;;19.85;31.85;101526.86;102184;1354;72796;-80
2021/11/25 10:13:24;;;;;;;;;;;;;;;19.86;31.91;101523.42;101755;1353;73812;-80
2021/11/25 10:16:12;;;;;;;;;;;;;;;19.86;31.70;101519.82;101287;1353;60425;-79
2021/11/25 10:18:51;;;;;;;;;;;;;;;19.86;31.72;101515.39;101265;1353;60590;-80
2021/11/25 10:21:38;;;;;;;;;;;;;;;19.86;31.74;101508.56;101412;1363;72661;-81
2021/11/25 10:24:04;;;;;;;;;;;;;;;19.87;31.72;101505.11;102407;1357;74219;-81
2021/11/25 10:26:29;;;;;;;;;;;;;;;19.88;31.70;101503.63;102469;1353;58580;-81
2021/11/25 10:29:02;;;;;;;;;;;;;;;19.87;31.88;101503.52;102382;1353;58937;-81
2021/11/25 10:31:32;;;;;;;;;;;;;;;19.86;31.85;101497.83;102294;1355;72861;-80
2021/11/25 10:34:03;;;;;;;;;;;;;;;19.85;31.89;101487.54;102385;1350;75333;-81
2021/11/25 10:41:55;;;;;;;;;;;;;;;19.83;31.67;101473.73;101442;1353;73076;-80
2021/11/25 10:44:25;;;;;;;;;;;;;;;19.82;31.59;101470.23;101520;1354;74026;-81
2021/11/25 10:47:02;;;;;;;;;;;;;;;19.80;31.42;101467.45;101518;1353;61448;-81
2021/11/25 10:49:54;;;;;;;;;;;;;;;19.78;31.64;101456.80;102388;1353;60479;-81
2021/11/25 10:52:33;;;;;;;;;;;;;;;19.76;31.67;101455.17;101333;1356;72999;-80
2021/11/25 10:54:59;;;;;;;;;;;;;;;19.72;31.68;101452.13;100897;1356;73629;-80
2021/11/25 10:57:56;;;;;;;;;;;;;;;;;;;;;
2021/11/25 11:00:34;;;;;;;;;;;;;;;19.65;31.65;101440.02;100083;1368;60647;-79
2021/11/25 11:03:19;;;;;;;;;;;;;;;19.61;31.68;101434.20;100343;1368;74364;-79
2021/11/25 11:06:01;;;;;;;;;;;;;;;19.59;31.60;101429.11;100058;1367;389926;-79
2021/11/25 11:08:47;;;;;;;;;;;;;;;19.57;31.65;101424.20;100321;1368;61023;-80
2021/11/25 11:11:29;;;;;;;;;;;;;;;19.59;31.61;101416.81;100240;1368;61336;-80
2021/11/25 11:17:35;;;;;;;;;;;;;;;19.47;31.42;101409.39;99728;1372;73048;-79
2021/11/25 11:20:26;;;;;;;;;;;;;;;19.47;31.65;101401.92;99774;1371;60560;-81
2021/11/25 11:23:30;;;;;;;;;;;;;;;;;;;;;
2021/11/25 11:26:32;;;;;;;;;;;;;;;19.49;31.75;101392.19;99763;1371;70581;-79
2021/11/25 11:29:25;;;;;;;;;;;;;;;19.51;31.77;101387.42;99805;1372;74033;-79
2021/11/25 11:32:03;;;;;;;;;;;;;;;;;;;;;
2021/11/25 11:34:49;;;;;;;;;;;;;;;19.55;31.73;101384.16;100072;1367;62002;-79
2021/11/25 11:37:52;;;;;;;;;;;;;;;;;;;;;
2021/11/25 11:40:48;;;;;;;;;;;;;;;19.58;31.82;101380.40;100532;1362;75220;-78
2021/11/25 11:43:29;;;;;;;;;;;;;;;19.60;31.74;101375.83;100580;1363;60167;-79
2021/11/25 11:46:18;;;;;;;;;;;;;;;19.60;31.83;101368.52;100527;1362;60712;-78
2021/11/25 11:49:32;;;;;;;;;;;;;;;19.59;32.04;101363.93;100527;1360;73933;-78
2021/11/25 11:51:45;;;;;;;;;;;;;;;19.60;31.80;101358.35;100379;1362;73963;-79
2021/11/25 11:54:24;;;;;;;;;;;;;;;19.59;31.65;101355.34;100861;1361;60998;-79
2021/11/25 11:57:45;;;;;;;;;;;;;;;;;;;;;
2021/11/25 12:00:22;;;;;;;;;;;;;;;19.57;31.53;101354.39;100679;1362;73834;-81
2021/11/25 12:03:27;;;;;;;;;;;;;;;19.54;31.39;101352.10;100491;1362;75377;-79
2021/11/25 12:06:13;;;;;;;;;;;;;;;19.49;31.38;101347.52;100137;1362;60139;-79
2021/11/25 12:09:12;;;;;;;;;;;;;;;19.46;31.46;101342.55;100310;1367;60531;-78
2021/11/25 12:12:09;;;;;;;;;;;;;;;19.36;31.30;101340.23;101303;1359;72858;-79
2021/11/25 12:14:34;;;;;;;;;;;;;;;19.35;31.51;101337.77;100950;1366;75211;-79
2021/11/25 12:17:24;;;;;;;;;;;;;;;19.39;31.42;101335.21;100966;1365;60376;-79
2021/11/25 12:19:50;;;;;;;;;;;;;;;19.43;31.48;101333.02;101287;1362;61720;-79
2021/11/25 12:22:16;;;;;;;;;;;;;;;19.49;31.50;101325.40;101329;1362;58801;-79
2021/11/25 12:24:45;;;;;;;;;;;;;;;19.53;31.65;101330.20;101233;1366;58619;-80
2021/11/25 12:27:15;;;;;;;;;;;;;;;19.55;31.66;101327.90;101328;1362;61699;-79
2021/11/25 12:29:43;;;;;;;;;;;;;;;19.58;31.65;101324.17;101215;1359;60252;-79
2021/11/25 12:35:30;;;;;;;;;;;;;;;;;;;;;
2021/11/25 12:38:08;;;;;;;;;;;;;;;19.66;31.57;101316.25;101052;1371;59248;-79
2021/11/25 12:40:35;;;;;;;;;;;;;;;19.69;31.45;101314.48;100969;1368;60556;-79
2021/11/25 12:43:01;;;;;;;;;;;;;;;19.72;31.46;101309.84;100959;1368;73752;-79
2021/11/25 12:45:31;;;;;;;;;;;;;;;19.73;31.41;101310.27;100785;1368;58482;-79
2021/11/25 12:48:12;;;;;;;;;;;;;;;19.76;31.41;101309.21;100738;1371;60473;-79
2021/11/25 12:50:59;;;;;;;;;;;;;;;19.79;31.40;101311.75;99730;1368;62006;-78
2021/11/25 12:53:43;;;;;;;;;;;;;;;19.82;31.26;101303.54;100020;1365;72822;-79
2021/11/25 12:56:35;;;;;;;;;;;;;;;19.75;30.91;101294.29;101038;1364;75549;-79
2021/11/25 12:59:13;;;;;;;;;;;;;;;19.66;30.95;101284.99;100957;1371;61164;-79
2021/11/25 13:01:42;;;;;;;;;;;;;;;19.65;31.12;101281.98;100690;1369;60317;-79
2021/11/25 13:04:15;;;;;;;;;;;;;;;19.68;31.20;101283.08;101167;1369;58736;-79
2021/11/25 13:06:43;;;;;;;;;;;;;;;19.70;31.12;101284.02;100966;1362;74452;-79
2021/11/25 13:09:12;;;;;;;;;;;;;;;19.70;31.14;101283.33;101221;1366;60205;-79
2021/11/25 13:11:39;;;;;;;;;;;;;;;19.70;31.34;101281.33;101723;1359;62993;-79
2021/11/25 13:14:24;;;;;;;;;;;;;;;19.76;31.33;101280.64;101871;1358;58672;-79
2021/11/25 13:16:53;;;;;;;;;;;;;;;19.84;31.37;101276.83;102369;1354;74849;-79
2021/11/25 13:19:30;;;;;;;;;;;;;;;19.91;31.38;101275.36;102126;1358;59459;-79
2021/11/25 13:22:03;;;;;;;;;;;;;;;19.98;31.48;101269.78;102369;1357;60757;-79
2021/11/25 13:25:01;;;;;;;;;;;;;;;20.03;31.41;101263.73;101696;1356;73243;-78
2021/11/25 13:27:29;;;;;;;;;;;;;;;20.08;31.23;101260.04;101638;1357;75123;-78
2021/11/25 13:30:09;;;;;;;;;;;;;;;20.08;31.31;101262.91;100826;1359;59971;-79
2021/11/25 13:32:43;;;;;;;;;;;;;;;20.07;31.19;101261.56;101011;1356;60566;-78
2021/11/25 13:36:00;;;;;;;;;;;;;;;;;;;;;
2021/11/25 13:38:35;;;;;;;;;;;;;;;19.99;31.00;101256.31;100964;1366;73963;-79
2021/11/25 13:41:21;;;;;;;;;;;;;;;19.92;30.96;101255.09;100971;1360;60411;-79
2021/11/25 13:44:07;;;;;;;;;;;;;;;19.89;31.04;101255.67;100406;1365;61297;-79
2021/11/25 13:47:19;;;;;;;;;;;;;;;19.85;31.09;101258.70;99819;1371;74359;-79
2021/11/25 13:50:10;;;;;;;;;;;;;;;19.82;31.05;101260.11;99534;1375;75130;-80
2021/11/25 13:53:16;;;;;;;;;;;;;;;19.80;31.01;101258.28;99406;1374;62368;-79
2021/11/25 13:56:13;;;;;;;;;;;;;;;;;;;;;
2021/11/25 13:58:40;;;;;;;;;;;;;;;19.82;31.01;101249.64;100391;1381;72607;-79
2021/11/25 14:01:15;;;;;;;;;;;;;;;19.85;31.08;101247.48;100537;1375;58825;-79
2021/11/25 14:03:44;;;;;;;;;;;;;;;19.92;31.06;101249.75;100567;1374;60465;-79
2021/11/25 14:06:18;;;;;;;;;;;;;;;19.98;31.13;101247.10;100644;1375;60825;-79
2021/11/25 14:08:44;;;;;;;;;;;;;;;20.03;31.07;101249.27;100614;1377;73982;-79
2021/11/25 14:11:10;;;;;;;;;;;;;;;20.08;31.12;101246.83;99661;1374;59316;-79
2021/11/25 14:13:48;;;;;;;;;;;;;;;20.12;31.11;101244.28;99698;1374;60558;-79
2021/11/25 14:16:20;;;;;;;;;;;;;;;20.16;31.03;101240.48;99744;1377;60561;-79
2021/11/25 14:18:55;;;;;;;;;;;;;;;20.19;31.05;101236.50;99702;1371;73891;-79
2021/11/25 14:21:36;;;;;;;;;;;;;;;20.24;31.07;101235.88;101012;1371;73862;-79
2021/11/25 14:24:11;;;;;;;;;;;;;;;20.27;31.04;101236.25;101429;1367;60852;-79
2021/11/25 14:32:40;;;;;;;;;;;;;;;20.37;31.18;101227.41;101656;1360;73913;-79
2021/11/25 14:35:18;;;;;;;;;;;;;;;20.41;31.16;101226.05;101090;1357;60564;-77
2021/11/25 14:37:55;;;;;;;;;;;;;;;20.44;31.16;101223.20;101075;1357;61643;-78
2021/11/25 14:40:21;;;;;;;;;;;;;;;20.48;30.99;101220.30;102150;1361;71981;-78
2021/11/25 14:42:59;;;;;;;;;;;;;;;20.49;31.04;101220.41;102201;1361;58493;-78
2021/11/25 14:45:27;;;;;;;;;;;;;;;20.51;31.10;101218.13;101307;1360;61595;-78
2021/11/25 14:47:54;;;;;;;;;;;;;;;20.53;31.08;101216.04;101181;1361;61152;-78
2021/11/25 14:51:03;;;;;;;;;;;;;;;20.54;31.15;101215.77;100669;1368;74369;-80
2021/11/25 14:53:52;;;;;;;;;;;;;;;20.56;31.20;101215.64;99732;1378;75623;-80
2021/11/25 14:56:37;;;;;;;;;;;;;;;;;;;;;
2021/11/25 14:59:49;;;;;;;;;;;;;;;20.58;31.25;101212.15;99555;1378;61369;-78
2021/11/25 15:02:32;;;;;;;;;;;;;;;20.58;31.27;101211.58;99534;1378;72851;-78
2021/11/25 15:05:27;;;;;;;;;;;;;;;20.59;31.42;101213.15;99552;1374;72839;-79
2021/11/25 15:08:49;;;;;;;;;;;;;;;20.60;31.43;101217.38;99634;1379;63208;-80
2021/11/25 15:11:26;;;;;;;;;;;;;;;20.61;31.47;101210.91;99701;1382;61018;-80
2021/11/25 15:14:30;;;;;;;;;;;;;;;;;;;;;
2021/11/25 15:17:27;;;;;;;;;;;;;;;;;;;;;
2021/11/25 15:20:21;;;;;;;;;;;;;;;20.65;31.66;101207.62;99515;1381;60738;-81
2021/11/25 15:26:11;;;;;;;;;;;;;;;;;;;;;
2021/11/25 15:29:10;;;;;;;;;;;;;;;;;;;;;
2021/11/25 15:32:28;;;;;;;;;;;;;;;;;;;;;
2021/11/25 15:35:37;;;;;;;;;;;;;;;;;;;;;
2021/11/25 15:39:09;;;;;;;;;;;;;;;20.69;32.20;101200.95;100137;1378;73162;-81
2021/11/25 15:41:37;;;;;;;;;;;;;;;20.69;32.23;101195.38;99894;1381;75246;-81
2021/11/25 15:44:33;;;;;;;;;;;;;;;20.70;32.25;101194.25;99780;1380;60424;-81
2021/11/25 15:47:50;;;;;;;;;;;;;;;20.70;32.30;101194.96;99738;1374;60663;-80
2021/11/25 15:50:58;;;;;;;;;;;;;;;20.71;32.36;101192.23;99318;1383;71532;-80
2021/11/25 15:54:06;;;;;;;;;;;;;;;;;;;;;
2021/11/25 15:56:57;;;;;;;;;;;;;;;20.72;32.54;101185.36;99232;1387;60569;-80
2021/11/25 16:00:14;;;;;;;;;;;;;;;;;;;;;
2021/11/25 16:03:16;;;;;;;;;;;;;;;;;;;;;
2021/11/25 16:06:33;;;;;;;;;;;;;;;;;;;;;
2021/11/25 16:09:48;;;;;;;;;;;;;;;;;;;;;
2021/11/25 16:12:43;;;;;;;;;;;;;;;20.74;32.86;101175.91;98708;1395;60677;-81
2021/11/25 16:19:07;;;;;;;;;;;;;;;;;;;;;
2021/11/25 16:25:23;;;;;;;;;;;;;;;20.77;32.99;101166.99;98524;1396;61593;-81
2021/11/25 16:28:14;;;;;;;;;;;;;;;20.78;33.01;101173.02;98457;1394;73972;-81
2021/11/25 16:31:15;;;;;;;;;;;;;;;;;;;;;
2021/11/25 16:35:00;;;;;;;;;;;;;;;20.79;33.06;101176.34;98417;1402;60864;-80
2021/11/25 16:37:31;;;;;;;;;;;;;;;;;;;;;
2021/11/25 16:40:40;;;;;;;;;;;;;;;20.80;33.25;101174.30;98374;1401;73041;-81
2021/11/25 16:49:54;;;;;;;;;;;;;;;20.82;33.32;101177.22;97189;1410;60629;-80
2021/11/25 16:53:03;;;;;;;;;;;;;;;20.82;33.32;101179.59;96912;1413;73565;-81
2021/11/25 16:56:52;;;;;;;;;;;;;;;20.81;33.40;101175.48;97244;1407;75156;-81
2021/11/25 16:59:16;;;;;;;;;;;;;;;;;;;;;
2021/11/25 17:02:39;;;;;;;;;;;;;;;20.83;33.51;101174.30;97908;1399;60779;-80
2021/11/25 17:05:20;;;;;;;;;;;;;;;20.82;33.37;101171.48;98556;1395;71703;-79
2021/11/25 17:08:31;;;;;;;;;;;;;;;20.83;33.54;101173.19;98511;1395;75686;-80
2021/11/25 17:11:40;;;;;;;;;;;;;;;20.84;33.45;101174.76;98419;1397;60601;-81
2021/11/25 17:14:55;;;;;;;;;;;;;;;20.85;33.40;101175.25;98326;1402;60466;-81
2021/11/25 17:18:46;;;;;;;;;;;;;;;20.85;33.59;101175.40;98349;1394;71601;-81
2021/11/25 17:21:36;;;;;;;;;;;;;;;;;;;;;
2021/11/25 17:24:08;;;;;;;;;;;;;;;20.86;33.60;101170.20;98022;1403;60422;-81
2021/11/25 17:27:55;;;;;;;;;;;;;;;20.87;33.58;101174.21;98409;1396;60657;-80
2021/11/25 17:30:49;;;;;;;;;;;;;;;;;;;;;
2021/11/25 17:33:37;;;;;;;;;;;;;;;;;;;;;
2021/11/25 17:36:18;;;;;;;;;;;;;;;;;;;;;
2021/11/25 17:39:45;;;;;;;;;;;;;;;;;;;;;
2021/11/25 17:42:53;;;;;;;;;;;;;;;20.89;33.43;101177.69;98673;1393;71876;-79
2021/11/25 17:45:54;;;;;;;;;;;;;;;;;;;;;
2021/11/25 17:49:08;;;;;;;;;;;;;;;20.90;33.65;101169.55;98559;1389;60498;-80
2021/11/25 17:52:22;;;;;;;;;;;;;;;;;;;;;
2021/11/25 17:55:22;;;;;;;;;;;;;;;20.90;33.56;101165.39;98776;1392;72083;-80
2021/11/25 17:58:38;;;;;;;;;;;;;;;;;;;;;
2021/11/25 18:01:33;;;;;;;;;;;;;;;;;;;;;
2021/11/25 18:05:01;;;;;;;;;;;;;;;20.91;33.64;101158.36;98881;1391;60564;-79
2021/11/25 18:07:33;;;;;;;;;;;;;;;;;;;;;
2021/11/25 18:10:24;;;;;;;;;;;;;;;20.93;33.62;101160.25;98877;1385;74000;-80
2021/11/25 18:13:25;;;;;;;;;;;;;;;20.93;33.65;101155.96;98954;1391;60474;-82
2021/11/25 18:19:30;;;;;;;;;;;;;;;;;;;;;
2021/11/25 18:22:22;;;;;;;;;;;;;;;20.94;33.68;101153.23;98789;1392;74980;-80
2021/11/25 18:25:11;;;;;;;;;;;;;;;20.93;33.64;101150.55;99097;1386;61694;-80
2021/11/25 18:28:00;;;;;;;;;;;;;;;20.93;33.61;101150.71;99191;1383;60762;-81
2021/11/25 18:31:15;;;;;;;;;;;;;;;;;;;;;
2021/11/25 18:34:05;;;;;;;;;;;;;;;20.93;33.63;101145.70;99799;1375;74152;-80
2021/11/25 18:37:21;;;;;;;;;;;;;;;;;;;;;
2021/11/25 18:40:27;;;;;;;;;;;;;;;20.95;33.57;101137.41;100201;1371;61768;-80
2021/11/25 18:43:41;;;;;;;;;;;;;;;20.94;33.63;101139.39;100165;1377;71543;-80
2021/11/25 18:46:39;;;;;;;;;;;;;;;20.94;33.63;101133.14;99916;1374;75346;-80
2021/11/25 18:50:04;;;;;;;;;;;;;;;;;;;;;